Time;durP1;ratioP1;P1;durP2;ratioP2;P2;SDS_P1;SDS_P2;PMS_P1;PMS_P2;Temp;Humidity;BMP_temperature;BMP_pressure;BME280_temperature;BME280_humidity;BME280_pressure;Samples;Min_cycle;Max_cycle;Signal;HPM_P1;HPM_P2
2024/02/14 00:00:14;;;;;;;10.65;4.35;;;6.30;99.90;;;;;;4938118;29;20560;-89
2024/02/14 00:02:44;;;;;;;10.38;4.60;;;6.30;99.90;;;;;;4938085;29;20111;-89
2024/02/14 00:05:11;;;;;;;7.53;4.35;;;7.10;99.90;;;;;;4935654;29;20130;-89
2024/02/14 00:07:39;;;;;;;8.25;4.15;;;6.30;99.90;;;;;;4920829;29;20485;-89
2024/02/14 00:10:07;;;;;;;9.07;4.68;;;7.20;99.90;;;;;;4923291;29;20044;-89
2024/02/14 00:12:35;;;;;;;9.25;4.50;;;6.30;99.90;;;;;;4933324;29;20058;-88
2024/02/14 00:15:03;;;;;;;12.05;5.03;;;6.30;99.90;;;;;;4938480;29;20035;-89
2024/02/14 00:17:30;;;;;;;8.60;4.43;;;6.30;99.90;;;;;;4938034;29;20035;-89
2024/02/14 00:19:57;;;;;;;12.60;5.47;;;6.40;99.90;;;;;;4937711;29;20091;-88
2024/02/14 00:22:24;;;;;;;13.02;5.00;;;6.30;99.90;;;;;;4937529;29;20493;-88
2024/02/14 00:24:50;;;;;;;11.73;4.90;;;6.40;99.90;;;;;;4938056;29;20523;-89
2024/02/14 00:27:17;;;;;;;9.30;4.50;;;6.50;99.90;;;;;;4937469;29;20090;-89
2024/02/14 00:29:45;;;;;;;8.55;4.90;;;6.30;99.90;;;;;;4937584;29;20059;-89
2024/02/14 00:32:14;;;;;;;9.05;5.13;;;6.60;99.90;;;;;;4935072;29;20055;-89
2024/02/14 00:34:41;;;;;;;9.73;4.88;;;6.90;99.90;;;;;;4937700;29;20497;-89
2024/02/14 00:37:08;;;;;;;11.80;5.03;;;6.40;99.90;;;;;;4953639;29;20123;-89
2024/02/14 00:39:35;;;;;;;8.80;5.13;;;6.40;99.90;;;;;;4939122;29;20472;-88
2024/02/14 00:42:01;;;;;;;11.38;5.20;;;6.60;99.90;;;;;;4953750;29;20050;-89
2024/02/14 00:44:28;;;;;;;12.20;4.82;;;6.30;99.90;;;;;;4937759;29;20632;-89
2024/02/14 00:47:02;;;;;;;8.80;5.00;;;7.20;99.90;;;;;;4953357;29;20051;-89
2024/02/14 00:49:28;;;;;;;9.75;4.93;;;6.80;99.90;;;;;;4937520;29;20044;-89
2024/02/14 00:51:55;;;;;;;10.20;5.18;;;6.40;99.90;;;;;;4937770;29;20171;-88
2024/02/14 00:54:22;;;;;;;9.98;5.05;;;6.60;99.90;;;;;;4937406;29;20047;-89
2024/02/14 00:56:49;;;;;;;11.65;5.45;;;6.40;99.90;;;;;;4937587;29;20127;-89
2024/02/14 00:59:16;;;;;;;11.88;5.55;;;6.40;99.90;;;;;;4949623;29;20043;-89
2024/02/14 01:01:44;;;;;;;10.55;5.70;;;6.60;99.90;;;;;;4934610;29;20115;-89
2024/02/14 01:04:11;;;;;;;8.18;5.45;;;6.70;99.90;;;;;;4937159;29;20040;-89
2024/02/14 01:06:38;;;;;;;12.75;6.13;;;6.50;99.90;;;;;;4937583;29;20036;-89
2024/02/14 01:09:04;;;;;;;9.80;5.57;;;6.40;99.90;;;;;;4958338;29;20043;-89
2024/02/14 01:11:31;;;;;;;11.20;6.43;;;6.40;99.90;;;;;;4938770;29;20215;-89
2024/02/14 01:13:57;;;;;;;9.02;5.65;;;6.50;99.90;;;;;;4937661;29;20043;-89
2024/02/14 01:16:26;;;;;;;9.10;5.75;;;6.90;99.90;;;;;;4953164;29;20062;-88
2024/02/14 01:18:52;;;;;;;9.65;5.80;;;6.50;99.90;;;;;;4921470;29;20032;-89
2024/02/14 01:21:19;;;;;;;11.30;6.28;;;6.50;99.90;;;;;;4931579;29;20103;-89
2024/02/14 01:23:46;;;;;;;10.25;6.10;;;6.60;99.90;;;;;;4937390;29;20420;-89
2024/02/14 01:26:12;;;;;;;9.75;6.07;;;6.50;99.90;;;;;;4937614;29;20050;-89
2024/02/14 01:28:39;;;;;;;10.63;6.40;;;6.80;99.90;;;;;;4950106;29;20489;-89
2024/02/14 01:31:06;;;;;;;9.60;6.38;;;6.50;99.90;;;;;;4929352;29;20056;-89
2024/02/14 01:33:33;;;;;;;11.25;6.85;;;6.70;99.90;;;;;;4942625;29;20130;-89
2024/02/14 01:35:59;;;;;;;9.45;6.38;;;6.60;99.90;;;;;;4932464;29;20048;-89
2024/02/14 01:38:26;;;;;;;12.30;6.70;;;6.60;99.90;;;;;;4929877;29;20520;-89
2024/02/14 01:40:53;;;;;;;12.98;6.38;;;7.40;99.90;;;;;;4937531;29;20044;-89
2024/02/14 01:43:20;;;;;;;11.10;6.60;;;6.50;99.90;;;;;;4937792;29;20421;-89
2024/02/14 01:45:50;;;;;;;10.65;6.38;;;6.90;99.90;;;;;;4937093;29;20055;-89
2024/02/14 01:48:18;;;;;;;13.80;7.13;;;6.50;99.90;;;;;;4952619;29;20039;-89
2024/02/14 01:50:45;;;;;;;10.50;6.88;;;6.50;99.90;;;;;;4937140;29;20055;-89
2024/02/14 01:53:12;;;;;;;10.38;6.57;;;6.50;99.90;;;;;;4937509;29;20115;-89
2024/02/14 01:55:39;;;;;;;10.50;6.65;;;7.40;99.90;;;;;;4936941;29;20055;-89
2024/02/14 01:58:06;;;;;;;10.75;6.47;;;6.60;99.90;;;;;;4936813;29;20036;-89
2024/02/14 02:00:34;;;;;;;15.43;7.20;;;6.60;99.90;;;;;;4937070;29;20070;-89
2024/02/14 02:03:01;;;;;;;10.35;6.78;;;6.60;99.90;;;;;;4939482;29;20122;-89
2024/02/14 02:05:28;;;;;;;9.95;6.75;;;7.20;99.90;;;;;;4935997;29;20104;-89
2024/02/14 02:07:55;;;;;;;13.63;6.50;;;6.60;99.90;;;;;;4940982;29;20047;-89
2024/02/14 02:10:22;;;;;;;12.50;6.82;;;6.70;99.90;;;;;;4935089;29;20490;-89
2024/02/14 02:12:50;;;;;;;11.85;6.60;;;6.70;99.90;;;;;;4939748;29;20043;-89
2024/02/14 02:15:17;;;;;;;9.65;6.28;;;6.70;99.90;;;;;;4956485;29;20098;-90
2024/02/14 02:17:45;;;;;;;11.65;6.35;;;6.70;99.90;;;;;;4961982;29;20043;-89
2024/02/14 02:20:12;;;;;;;11.10;6.90;;;6.80;99.90;;;;;;4956119;29;20067;-89
2024/02/14 02:22:44;;;;;;;9.90;6.45;;;6.80;99.90;;;;;;4943668;29;20473;-90
2024/02/14 02:25:12;;;;;;;9.63;6.75;;;6.90;99.90;;;;;;4932527;29;20055;-89
2024/02/14 02:27:38;;;;;;;10.45;6.13;;;6.70;99.90;;;;;;4935956;29;20035;-89
2024/02/14 02:30:10;;;;;;;10.52;6.72;;;7.50;99.90;;;;;;4939708;29;20059;-90
2024/02/14 02:32:37;;;;;;;11.07;6.22;;;6.80;99.90;;;;;;4957585;29;20122;-90
2024/02/14 02:35:04;;;;;;;9.57;5.97;;;6.80;99.90;;;;;;4940137;29;20051;-90
2024/02/14 02:37:31;;;;;;;9.95;6.20;;;6.80;99.90;;;;;;4939993;29;20044;-89
2024/02/14 02:39:58;;;;;;;8.70;5.63;;;6.80;99.90;;;;;;4940027;29;20090;-89
2024/02/14 02:42:24;;;;;;;9.15;5.57;;;7.20;99.90;;;;;;4939963;29;20452;-89
2024/02/14 02:44:51;;;;;;;7.82;5.72;;;6.90;99.90;;;;;;4931525;29;20489;-90
2024/02/14 02:47:18;;;;;;;9.45;5.95;;;7.30;99.90;;;;;;4937568;29;20413;-89
2024/02/14 02:49:45;;;;;;;7.95;5.65;;;7.30;99.90;;;;;;4940385;29;20122;-90
2024/02/14 02:52:12;;;;;;;8.15;5.65;;;7.90;99.90;;;;;;4940030;29;20382;-89
2024/02/14 02:54:43;;;;;;;8.77;5.38;;;7.80;99.90;;;;;;4939853;29;20127;-90
2024/02/14 02:57:13;;;;;;;9.65;5.10;;;7.00;99.90;;;;;;4939893;29;20046;-89
2024/02/14 02:59:42;;;;;;;8.98;5.68;;;7.00;99.90;;;;;;4954828;29;20576;-89
2024/02/14 03:02:11;;;;;;;7.85;5.07;;;7.30;99.90;;;;;;4949916;29;20040;-89
2024/02/14 03:04:39;;;;;;;7.93;4.80;;;7.00;99.90;;;;;;4938838;29;20075;-89
2024/02/14 03:07:08;;;;;;;8.88;5.07;;;7.90;99.90;;;;;;4954833;29;20074;-89
2024/02/14 03:09:35;;;;;;;8.60;5.18;;;7.00;99.90;;;;;;4939712;29;20039;-89
2024/02/14 03:12:03;;;;;;;8.48;5.15;;;7.20;99.90;;;;;;4939521;29;20576;-89
2024/02/14 03:14:32;;;;;;;8.23;5.00;;;7.10;99.90;;;;;;4935569;29;20108;-89
2024/02/14 03:17:03;;;;;;;6.88;4.70;;;7.00;99.90;;;;;;4935805;29;20032;-90
2024/02/14 03:19:38;;;;;;;7.68;4.70;;;7.40;99.90;;;;;;4939635;29;20796;-89
2024/02/14 03:22:08;;;;;;;9.57;4.53;;;7.20;99.90;;;;;;4939274;29;20161;-90
2024/02/14 03:24:38;;;;;;;6.70;4.20;;;7.10;99.90;;;;;;4939557;29;20062;-90
2024/02/14 03:27:08;;;;;;;6.30;4.30;;;7.10;99.90;;;;;;4927064;29;20055;-89
2024/02/14 03:29:35;;;;;;;6.45;4.07;;;7.70;99.90;;;;;;4940971;29;20185;-89
2024/02/14 03:32:04;;;;;;;7.75;3.97;;;7.20;99.90;;;;;;4931786;29;20058;-90
2024/02/14 03:34:33;;;;;;;6.55;3.42;;;7.20;99.90;;;;;;4931701;29;20486;-90
2024/02/14 03:37:06;;;;;;;7.40;3.33;;;8.10;99.90;;;;;;4946251;29;20052;-89
2024/02/14 03:39:33;;;;;;;5.63;3.58;;;7.40;99.90;;;;;;4931440;29;20047;-89
2024/02/14 03:42:02;;;;;;;7.10;3.65;;;7.80;99.90;;;;;;4934351;29;20039;-89
2024/02/14 03:44:29;;;;;;;5.50;3.35;;;7.30;99.90;;;;;;4934949;29;20040;-90
2024/02/14 03:46:56;;;;;;;5.10;3.30;;;7.40;99.90;;;;;;4933653;29;20412;-89
2024/02/14 03:49:22;;;;;;;5.55;3.40;;;7.30;99.90;;;;;;4936227;29;20078;-90
2024/02/14 03:51:52;;;;;;;5.55;3.47;;;7.90;99.90;;;;;;4938724;29;20044;-90
2024/02/14 03:54:19;;;;;;;5.50;3.60;;;7.90;99.90;;;;;;4938766;29;20049;-89
2024/02/14 03:56:46;;;;;;;5.95;3.53;;;7.90;99.90;;;;;;4951052;29;20040;-89
2024/02/14 03:59:12;;;;;;;5.35;3.67;;;7.90;99.90;;;;;;4953360;29;20032;-89
2024/02/14 04:01:45;;;;;;;6.18;3.78;;;7.40;99.90;;;;;;4935408;29;20071;-89
2024/02/14 04:04:11;;;;;;;5.03;3.22;;;7.80;99.90;;;;;;4941956;29;20043;-90
2024/02/14 04:06:38;;;;;;;7.15;3.40;;;7.50;99.90;;;;;;4939331;29;20050;-89
2024/02/14 04:09:04;;;;;;;5.78;3.50;;;7.90;99.90;;;;;;4920292;29;20522;-90
2024/02/14 04:11:32;;;;;;;5.53;3.47;;;7.50;99.90;;;;;;4933266;29;20043;-90
2024/02/14 04:13:59;;;;;;;5.70;3.33;;;7.60;99.90;;;;;;4930691;29;20073;-90
2024/02/14 04:16:26;;;;;;;6.05;3.28;;;7.60;99.90;;;;;;4933573;29;20507;-89
2024/02/14 04:18:54;;;;;;;5.63;3.30;;;7.60;99.90;;;;;;4938342;29;21052;-90
2024/02/14 04:21:21;;;;;;;5.30;3.30;;;7.80;99.90;;;;;;4938221;29;20054;-89
2024/02/14 04:23:47;;;;;;;4.90;3.20;;;7.60;99.90;;;;;;4938254;29;20035;-90
2024/02/14 04:26:21;;;;;;;5.53;3.22;;;7.90;99.90;;;;;;4934731;29;20044;-89
2024/02/14 04:28:47;;;;;;;6.07;3.03;;;7.80;99.90;;;;;;4929686;29;20559;-90
2024/02/14 04:31:17;;;;;;;5.97;2.88;;;8.70;99.90;;;;;;4937816;29;20051;-90
2024/02/14 04:33:43;;;;;;;5.75;3.13;;;8.60;99.90;;;;;;4953881;29;20134;-90
2024/02/14 04:36:11;;;;;;;5.88;3.28;;;7.90;99.90;;;;;;4953935;29;20134;-90
2024/02/14 04:38:38;;;;;;;5.18;3.05;;;7.80;99.90;;;;;;4938009;29;20035;-90
2024/02/14 04:41:05;;;;;;;4.75;3.13;;;8.30;99.90;;;;;;4952924;29;20051;-90
2024/02/14 04:43:31;;;;;;;4.78;2.92;;;8.70;99.90;;;;;;4943741;29;20031;-90
2024/02/14 04:45:58;;;;;;;5.22;3.10;;;8.30;99.90;;;;;;4941889;29;20102;-90
2024/02/14 04:48:25;;;;;;;5.07;3.10;;;8.40;99.90;;;;;;4937676;29;20496;-90
2024/02/14 04:50:52;;;;;;;5.47;3.38;;;8.10;99.90;;;;;;4937761;29;20055;-90
2024/02/14 04:53:19;;;;;;;5.30;3.22;;;8.60;99.90;;;;;;4937629;29;20412;-90
2024/02/14 04:55:46;;;;;;;5.50;3.22;;;8.20;99.90;;;;;;4937628;29;20517;-90
2024/02/14 04:58:13;;;;;;;6.45;3.22;;;8.00;99.90;;;;;;4938005;29;20086;-90
2024/02/14 05:00:39;;;;;;;5.30;3.22;;;8.00;99.90;;;;;;4937685;29;20058;-90
2024/02/14 05:03:06;;;;;;;4.68;2.70;;;8.00;99.90;;;;;;4953221;29;20075;-90
2024/02/14 05:05:35;;;;;;;6.55;2.90;;;8.00;99.90;;;;;;4941546;29;20035;-91
2024/02/14 05:08:02;;;;;;;5.10;3.15;;;8.10;99.90;;;;;;4953243;29;20036;-90
2024/02/14 05:10:29;;;;;;;4.80;2.90;;;8.10;99.90;;;;;;4937882;29;20044;-90
2024/02/14 05:12:56;;;;;;;4.82;2.95;;;8.10;99.90;;;;;;4937506;29;20044;-90
2024/02/14 05:15:23;;;;;;;5.60;2.90;;;8.20;99.90;;;;;;4925743;29;20103;-89
2024/02/14 05:17:50;;;;;;;4.40;2.72;;;8.10;99.90;;;;;;4953570;29;20067;-90
2024/02/14 05:20:17;;;;;;;4.40;2.40;;;8.70;99.90;;;;;;4937693;29;20115;-89
2024/02/14 05:22:44;;;;;;;4.90;3.00;;;8.30;99.90;;;;;;4925713;29;20078;-90
2024/02/14 05:25:11;;;;;;;6.32;3.10;;;9.00;99.90;;;;;;4943701;29;20478;-90
2024/02/14 05:27:38;;;;;;;4.85;2.70;;;9.00;99.90;;;;;;4937951;29;20078;-90
2024/02/14 05:30:06;;;;;;;4.70;2.70;;;8.70;99.90;;;;;;4950096;29;20063;-90
2024/02/14 05:32:33;;;;;;;5.05;2.78;;;8.30;99.90;;;;;;4949218;29;20105;-90
2024/02/14 05:35:00;;;;;;;5.90;2.80;;;8.50;99.90;;;;;;4937012;29;20490;-90
2024/02/14 05:37:27;;;;;;;4.20;2.50;;;8.40;99.90;;;;;;4938864;29;20103;-90
2024/02/14 05:39:54;;;;;;;6.30;2.88;;;8.40;99.90;;;;;;4941133;29;20071;-90
2024/02/14 05:42:21;;;;;;;6.28;2.83;;;8.90;99.90;;;;;;4940984;29;20790;-90
2024/02/14 05:44:48;;;;;;;5.53;3.08;;;9.10;99.90;;;;;;4956775;29;20046;-90
2024/02/14 05:47:15;;;;;;;5.00;2.58;;;9.00;99.90;;;;;;4941079;29;20052;-90
2024/02/14 05:49:41;;;;;;;3.90;2.53;;;8.50;99.90;;;;;;4941232;29;20548;-90
2024/02/14 05:52:08;;;;;;;5.13;3.08;;;8.50;99.90;;;;;;4941225;29;20048;-90
2024/02/14 05:54:35;;;;;;;5.25;3.00;;;8.60;99.90;;;;;;4940375;29;20043;-90
2024/02/14 05:57:05;;;;;;;5.32;2.78;;;9.10;99.90;;;;;;4929681;29;20512;-90
2024/02/14 05:59:32;;;;;;;5.68;3.03;;;8.50;99.90;;;;;;4941148;29;20042;-90
2024/02/14 06:01:59;;;;;;;4.80;2.88;;;8.60;99.90;;;;;;4950407;29;20039;-90
2024/02/14 06:04:25;;;;;;;5.07;2.88;;;8.60;99.90;;;;;;4938070;29;20051;-89
2024/02/14 06:06:52;;;;;;;8.65;3.00;;;8.80;99.90;;;;;;4940615;29;20039;-90
2024/02/14 06:09:18;;;;;;;6.10;3.25;;;8.60;99.90;;;;;;4940697;29;20107;-90
2024/02/14 06:11:45;;;;;;;4.93;2.85;;;9.30;99.90;;;;;;4925010;29;20106;-90
2024/02/14 06:14:13;;;;;;;5.47;2.92;;;8.70;99.90;;;;;;4947069;29;20047;-90
2024/02/14 06:16:39;;;;;;;6.60;3.05;;;8.70;99.90;;;;;;4940342;29;20039;-90
2024/02/14 06:19:06;;;;;;;4.90;2.67;;;8.80;99.90;;;;;;4932331;29;20087;-91
2024/02/14 06:21:33;;;;;;;5.50;3.10;;;8.70;99.90;;;;;;4953294;29;20576;-90
2024/02/14 06:24:00;;;;;;;5.55;3.08;;;8.80;99.90;;;;;;4940212;29;20036;-90
2024/02/14 06:26:27;;;;;;;4.95;2.78;;;8.80;99.90;;;;;;4939902;29;20054;-90
2024/02/14 06:28:54;;;;;;;5.32;2.92;;;8.80;99.90;;;;;;4940064;29;20496;-90
2024/02/14 06:31:22;;;;;;;4.78;2.90;;;8.80;99.90;;;;;;4939014;29;20531;-90
2024/02/14 06:33:49;;;;;;;4.70;2.85;;;9.20;99.90;;;;;;4938924;29;20051;-90
2024/02/14 06:36:16;;;;;;;4.53;2.58;;;8.90;99.90;;;;;;4935614;29;20047;-90
2024/02/14 06:38:43;;;;;;;4.35;2.60;;;9.10;99.90;;;;;;4941977;29;20035;-90
2024/02/14 06:41:09;;;;;;;7.05;2.83;;;8.90;99.90;;;;;;4949072;29;20039;-90
2024/02/14 06:43:38;;;;;;;5.13;2.83;;;9.50;99.90;;;;;;4938880;29;20047;-90
2024/02/14 06:46:05;;;;;;;4.57;2.60;;;9.30;99.90;;;;;;4939144;29;20050;-90
2024/02/14 06:48:32;;;;;;;6.55;2.63;;;8.90;99.90;;;;;;4939047;29;20043;-90
2024/02/14 06:50:59;;;;;;;5.40;2.53;;;8.90;99.90;;;;;;4936975;29;20044;-90
2024/02/14 06:53:26;;;;;;;4.57;2.47;;;8.90;99.90;;;;;;4935119;29;20036;-90
2024/02/14 06:55:52;;;;;;;5.07;2.78;;;10.00;99.90;;;;;;4930779;29;20039;-90
2024/02/14 06:58:19;;;;;;;5.40;2.50;;;8.90;99.90;;;;;;4954410;29;20062;-89
2024/02/14 07:00:46;;;;;;;4.78;2.40;;;9.20;99.90;;;;;;4932624;29;20420;-90
2024/02/14 07:03:12;;;;;;;5.47;2.70;;;9.00;99.90;;;;;;4938237;29;20480;-85
2024/02/14 07:05:39;;;;;;;5.93;3.13;;;9.00;99.90;;;;;;4937872;29;20052;-90
2024/02/14 07:08:06;;;;;;;5.70;3.35;;;9.00;99.90;;;;;;4937221;29;20126;-86
2024/02/14 07:10:33;;;;;;;10.50;3.50;;;9.00;99.90;;;;;;4937172;29;20466;-87
2024/02/14 07:12:59;;;;;;;6.65;3.53;;;9.10;99.90;;;;;;4936226;29;20548;-89
2024/02/14 07:15:28;;;;;;;9.75;3.85;;;9.10;99.90;;;;;;4936043;29;20054;-89
2024/02/14 07:17:55;;;;;;;9.88;4.20;;;9.30;99.90;;;;;;4944869;29;20043;-88
2024/02/14 07:20:22;;;;;;;7.53;4.18;;;9.20;99.90;;;;;;4937810;29;20036;-89
2024/02/14 07:22:52;;;;;;;8.18;4.15;;;9.20;99.90;;;;;;4944584;29;20040;-89
2024/02/14 07:25:20;;;;;;;11.80;4.40;;;9.20;99.90;;;;;;4950632;29;20040;-89
2024/02/14 07:27:49;;;;;;;11.85;4.35;;;9.10;99.90;;;;;;4938916;29;20453;-89
2024/02/14 07:30:16;;;;;;;13.75;4.80;;;9.20;99.90;;;;;;4907736;29;1106669;-89
2024/02/14 07:32:44;;;;;;;14.57;5.07;;;9.20;99.90;;;;;;4939158;29;20043;-89
2024/02/14 07:35:13;;;;;;;19.10;5.40;;;9.30;99.90;;;;;;4921001;29;20051;-90
2024/02/14 07:37:41;;;;;;;16.92;5.35;;;9.30;99.90;;;;;;4940279;29;20762;-90
2024/02/14 07:40:08;;;;;;;17.40;5.28;;;9.80;99.90;;;;;;4938863;29;20027;-89
2024/02/14 07:42:35;;;;;;;20.92;5.63;;;9.40;99.90;;;;;;4938503;29;20042;-89
2024/02/14 07:45:03;;;;;;;24.58;5.78;;;9.50;99.90;;;;;;4938749;29;20048;-90
2024/02/14 07:47:29;;;;;;;26.02;6.63;;;9.60;99.90;;;;;;4937597;29;20123;-90
2024/02/14 07:49:57;;;;;;;17.75;6.25;;;9.40;99.90;;;;;;4939370;29;20179;-90
2024/02/14 07:52:24;;;;;;;23.80;6.60;;;10.00;99.90;;;;;;4938660;29;20047;-90
2024/02/14 07:54:54;;;;;;;39.22;7.15;;;9.50;99.90;;;;;;4938430;29;20055;-89
2024/02/14 07:57:22;;;;;;;23.83;7.20;;;9.90;99.90;;;;;;4938251;29;20154;-89
2024/02/14 07:59:51;;;;;;;33.72;6.93;;;9.50;99.90;;;;;;4942854;29;20043;-90
2024/02/14 08:02:19;;;;;;;22.67;6.97;;;9.50;99.90;;;;;;4940333;29;20126;-89
2024/02/14 08:04:45;;;;;;;40.67;7.30;;;9.50;99.90;;;;;;4938856;29;20062;-89
2024/02/14 08:07:12;;;;;;;32.10;6.78;;;9.60;99.90;;;;;;4938174;29;20047;-89
2024/02/14 08:09:40;;;;;;;27.02;7.07;;;9.60;99.90;;;;;;4938407;29;20078;-90
2024/02/14 08:12:06;;;;;;;35.95;7.43;;;9.70;99.90;;;;;;4939837;29;20043;-90
2024/02/14 08:14:36;;;;;;;40.35;7.60;;;9.60;99.90;;;;;;4955173;29;20076;-90
2024/02/14 08:17:03;;;;;;;29.00;6.88;;;9.70;99.90;;;;;;4938136;29;20040;-90
2024/02/14 08:19:29;;;;;;;43.03;6.93;;;9.60;99.90;;;;;;4937230;29;20090;-90
2024/02/14 08:21:58;;;;;;;36.10;7.38;;;9.70;99.90;;;;;;4932197;29;20497;-90
2024/02/14 08:24:26;;;;;;;34.35;6.90;;;9.70;99.90;;;;;;4938046;29;20035;-90
2024/02/14 08:26:53;;;;;;;37.95;9.10;;;9.70;99.90;;;;;;4937598;29;20095;-89
2024/02/14 08:29:20;;;;;;;31.42;6.35;;;9.70;99.90;;;;;;4937800;29;20047;-89
2024/02/14 08:31:47;;;;;;;31.40;6.40;;;9.70;99.90;;;;;;4934659;29;20607;-90
2024/02/14 08:34:15;;;;;;;33.75;6.82;;;9.70;99.90;;;;;;4938444;29;20039;-90
2024/02/14 08:36:43;;;;;;;32.53;6.63;;;9.70;99.90;;;;;;4953503;29;20484;-89
2024/02/14 08:39:10;;;;;;;29.88;7.18;;;9.70;99.90;;;;;;4927748;29;20501;-90
2024/02/14 08:41:38;;;;;;;31.55;6.80;;;9.70;99.90;;;;;;4937898;29;20382;-89
2024/02/14 08:44:05;;;;;;;30.85;6.15;;;9.70;99.90;;;;;;4936972;28;20556;-89
2024/02/14 08:46:32;;;;;;;37.85;6.22;;;10.00;99.90;;;;;;4937916;29;20106;-89
2024/02/14 08:49:01;;;;;;;40.15;7.30;;;10.10;99.90;;;;;;4938068;29;20119;-90
2024/02/14 08:51:29;;;;;;;31.35;6.45;;;9.80;99.90;;;;;;4930112;29;20490;-90
2024/02/14 08:53:59;;;;;;;29.23;6.50;;;10.00;99.90;;;;;;4931437;29;20535;-90
2024/02/14 08:56:26;;;;;;;26.20;6.95;;;10.00;99.90;;;;;;4946506;29;20102;-90
2024/02/14 08:58:52;;;;;;;26.92;6.30;;;10.00;99.90;;;;;;4941330;29;20071;-90
2024/02/14 09:01:20;;;;;;;37.65;7.45;;;10.30;99.90;;;;;;4934040;29;20055;-90
2024/02/14 09:03:47;;;;;;;34.53;6.55;;;10.30;99.90;;;;;;4950302;29;20044;-90
2024/02/14 09:06:15;;;;;;;25.75;6.28;;;10.10;99.90;;;;;;4937445;29;20046;-90
2024/02/14 09:08:44;;;;;;;32.35;8.82;;;10.00;99.90;;;;;;4937441;29;20074;-90
2024/02/14 09:11:12;;;;;;;18.85;6.55;;;10.60;99.90;;;;;;4940355;29;20036;-90
2024/02/14 09:13:41;;;;;;;23.65;6.72;;;10.10;99.90;;;;;;4934024;29;20032;-90
2024/02/14 09:16:11;;;;;;;23.55;5.53;;;10.30;99.90;;;;;;4931857;29;20075;-90
2024/02/14 09:18:37;;;;;;;19.15;6.47;;;10.10;99.90;;;;;;4938092;29;20087;-91
2024/02/14 09:21:05;;;;;;;14.77;5.05;;;10.10;99.90;;;;;;4936849;29;20036;-90
2024/02/14 09:23:32;;;;;;;27.17;5.70;;;10.20;99.90;;;;;;4925609;29;20114;-90
2024/02/14 09:25:58;;;;;;;17.27;5.18;;;10.70;99.90;;;;;;4936610;29;20047;-90
2024/02/14 09:28:25;;;;;;;19.20;4.82;;;10.70;99.90;;;;;;4930402;29;20146;-90
2024/02/14 09:30:52;;;;;;;19.00;5.13;;;10.30;99.90;;;;;;4943292;29;20063;-90
2024/02/14 09:33:19;;;;;;;21.58;4.65;;;10.30;99.90;;;;;;4934204;29;20524;-90
2024/02/14 09:35:47;;;;;;;16.20;4.75;;;10.30;99.90;;;;;;4949819;29;20064;-90
2024/02/14 09:38:14;;;;;;;20.67;5.38;;;10.30;99.90;;;;;;4937064;29;20091;-90
2024/02/14 09:40:41;;;;;;;20.55;4.97;;;10.40;99.90;;;;;;4937219;29;20131;-90
2024/02/14 09:43:27;;;;;;;17.85;4.68;;;10.40;99.90;;;;;;4934228;29;20442;-90
2024/02/14 09:45:54;;;;;;;18.85;4.75;;;10.70;99.90;;;;;;4923176;29;20075;-90
2024/02/14 09:48:21;;;;;;;20.00;5.20;;;10.60;99.90;;;;;;4929239;29;20072;-90
2024/02/14 09:50:48;;;;;;;19.98;6.95;;;10.50;99.90;;;;;;4941295;29;20044;-90
2024/02/14 09:53:16;;;;;;;16.98;4.90;;;10.40;99.90;;;;;;4937168;29;20066;-90
2024/02/14 09:55:43;;;;;;;17.70;5.00;;;10.40;99.90;;;;;;4924607;29;20051;-90
2024/02/14 09:58:10;;;;;;;20.88;4.75;;;10.80;99.90;;;;;;4936578;29;20039;-90
2024/02/14 10:00:36;;;;;;;14.63;4.65;;;10.50;99.90;;;;;;4936618;29;20039;-90
2024/02/14 10:03:03;;;;;;;12.02;3.72;;;10.50;99.90;;;;;;4937165;29;20040;-90
2024/02/14 10:05:30;;;;;;;14.48;4.40;;;10.50;99.90;;;;;;4949664;29;20449;-90
2024/02/14 10:07:57;;;;;;;13.45;4.30;;;10.60;99.90;;;;;;4946814;29;20040;-90
2024/02/14 10:10:25;;;;;;;17.67;4.40;;;10.60;99.90;;;;;;4921896;29;20044;-90
2024/02/14 10:12:54;;;;;;;13.57;3.90;;;10.60;99.90;;;;;;4936646;29;20107;-89
2024/02/14 10:15:26;;;;;;;16.70;4.35;;;10.60;99.90;;;;;;4936130;29;20449;-89
2024/02/14 10:17:53;;;;;;;14.45;6.07;;;10.60;99.90;;;;;;4935996;29;20047;-89
2024/02/14 10:20:26;;;;;;;11.60;4.32;;;11.30;99.90;;;;;;4936511;29;20032;-90
2024/02/14 10:23:02;;;;;;;14.88;6.15;;;10.70;99.90;;;;;;4916896;29;20055;-90
2024/02/14 10:25:31;;;;;;;14.27;5.90;;;10.60;99.90;;;;;;4938612;29;20044;-89
2024/02/14 10:28:05;;;;;;;18.60;5.00;;;10.90;99.90;;;;;;4939339;29;20091;-92
2024/02/14 10:30:31;;;;;;;12.35;5.00;;;10.60;99.90;;;;;;4939804;29;20505;-88
2024/02/14 10:32:59;;;;;;;33.03;18.33;;;10.60;99.90;;;;;;4940374;29;20054;-89
2024/02/14 10:35:26;;;;;;;16.60;6.18;;;10.60;99.90;;;;;;4940478;29;20059;-91
2024/02/14 10:37:57;;;;;;;22.05;8.25;;;10.60;99.90;;;;;;4953343;29;20044;-90
2024/02/14 10:40:24;;;;;;;17.25;6.93;;;10.60;99.90;;;;;;4921438;29;20036;-91
2024/02/14 10:42:54;;;;;;;14.60;6.00;;;10.50;99.90;;;;;;4956940;29;20040;-92
2024/02/14 10:45:20;;;;;;;15.98;6.70;;;10.60;99.90;;;;;;4939985;29;20079;-91
2024/02/14 10:47:48;;;;;;;17.52;6.50;;;10.50;99.90;;;;;;4939243;29;20071;-91
2024/02/14 10:50:15;;;;;;;15.98;6.78;;;10.50;99.90;;;;;;4937789;29;20048;-90
2024/02/14 10:52:43;;;;;;;18.55;7.82;;;10.60;99.90;;;;;;4939405;29;20560;-88
2024/02/14 10:55:12;;;;;;;17.33;7.32;;;10.50;99.90;;;;;;4952658;29;20062;-90
2024/02/14 10:57:38;;;;;;;14.75;8.30;;;10.60;99.90;;;;;;4939052;29;20047;-90
2024/02/14 11:00:13;;;;;;;16.05;8.23;;;10.60;99.90;;;;;;4940750;29;20075;-92
2024/02/14 11:02:41;;;;;;;17.20;8.32;;;10.60;99.90;;;;;;4938547;29;20039;-88
2024/02/14 11:05:17;;;;;;;15.05;7.68;;;10.60;99.90;;;;;;4944570;29;20050;-87
2024/02/14 11:07:47;;;;;;;18.85;7.63;;;11.00;99.90;;;;;;4938943;29;20032;-89
2024/02/14 11:10:15;;;;;;;14.90;8.07;;;10.60;99.90;;;;;;4955455;29;20655;-89
2024/02/14 11:12:44;;;;;;;17.08;8.35;;;10.70;99.90;;;;;;4954753;29;20079;-90
2024/02/14 11:15:22;;;;;;;16.35;7.85;;;10.60;99.90;;;;;;4953704;29;20058;-89
2024/02/14 11:17:49;;;;;;;12.88;7.38;;;10.70;99.90;;;;;;4928200;29;20536;-89
2024/02/14 11:20:17;;;;;;;11.50;7.13;;;10.70;99.90;;;;;;4937551;29;20071;-89
2024/02/14 11:22:54;;;;;;;14.07;7.32;;;10.70;99.90;;;;;;4954691;29;20039;-89
2024/02/14 11:25:35;;;;;;;11.25;6.93;;;10.70;99.90;;;;;;4936887;29;20040;-90
2024/02/14 11:28:23;;;;;;;11.27;6.97;;;10.80;99.90;;;;;;4932039;29;20044;-90
2024/02/14 11:30:50;;;;;;;12.95;7.00;;;10.70;99.90;;;;;;4927820;29;20047;-90
2024/02/14 11:33:18;;;;;;;13.75;7.25;;;10.80;99.90;;;;;;4939092;29;20131;-90
2024/02/14 11:35:51;;;;;;;12.45;6.60;;;10.80;99.90;;;;;;4937448;29;20516;-88
2024/02/14 11:38:18;;;;;;;10.63;6.45;;;10.80;99.90;;;;;;4940438;29;20394;-89
2024/02/14 11:40:45;;;;;;;10.45;6.65;;;10.90;99.90;;;;;;4940203;29;20397;-89
2024/02/14 11:43:18;;;;;;;12.52;6.95;;;10.90;99.90;;;;;;4954036;29;20055;-90
2024/02/14 11:45:46;;;;;;;13.88;7.10;;;10.90;99.90;;;;;;4938596;29;20505;-90
2024/02/14 11:48:13;;;;;;;15.95;6.65;;;10.90;99.90;;;;;;4936354;29;20075;-90
2024/02/14 11:50:41;;;;;;;14.38;7.05;;;10.90;99.90;;;;;;4939287;29;20046;-90
2024/02/14 11:53:10;;;;;;;12.15;7.05;;;10.90;99.90;;;;;;4938509;29;20050;-89
2024/02/14 11:55:41;;;;;;;13.90;7.97;;;11.80;99.90;;;;;;4952486;29;20040;-90
2024/02/14 11:58:11;;;;;;;14.50;8.30;;;11.10;99.90;;;;;;4940525;29;20050;-90
2024/02/14 12:00:43;;;;;;;16.73;8.00;;;11.10;99.90;;;;;;4945287;29;20054;-89
2024/02/14 12:03:18;;;;;;;11.63;7.38;;;11.10;99.90;;;;;;4955518;29;20051;-89
2024/02/14 12:05:47;;;;;;;12.65;7.78;;;11.10;99.90;;;;;;4936822;29;20040;-90
2024/02/14 12:08:14;;;;;;;11.93;8.05;;;11.10;99.90;;;;;;4934784;29;20048;-90
2024/02/14 12:10:49;;;;;;;12.15;7.30;;;11.10;99.90;;;;;;4937093;29;20040;-90
2024/02/14 12:13:20;;;;;;;12.95;7.68;;;11.10;99.90;;;;;;4953542;29;20054;-90
2024/02/14 12:15:48;;;;;;;13.60;8.07;;;11.40;99.90;;;;;;4938220;29;20071;-89
2024/02/14 12:18:18;;;;;;;12.55;7.15;;;11.20;99.90;;;;;;4937390;29;20094;-89
2024/02/14 12:20:45;;;;;;;11.93;7.50;;;11.20;99.90;;;;;;4938361;29;20055;-90
2024/02/14 12:23:20;;;;;;;15.10;8.15;;;11.20;99.90;;;;;;4937878;29;20051;-88
2024/02/14 12:25:47;;;;;;;14.30;8.30;;;11.20;99.90;;;;;;4940002;29;20043;-89
2024/02/14 12:28:18;;;;;;;15.10;8.48;;;11.30;99.90;;;;;;4937850;29;20480;-92
2024/02/14 12:30:57;;;;;;;18.08;9.10;;;11.20;99.90;;;;;;4937253;29;20138;-91
2024/02/14 12:33:25;;;;;;;15.02;9.30;;;11.70;99.90;;;;;;4935859;29;20054;-91
2024/02/14 12:35:54;;;;;;;16.50;8.98;;;11.20;99.90;;;;;;4925609;29;20497;-89
2024/02/14 12:38:22;;;;;;;15.00;9.23;;;11.20;99.90;;;;;;4937874;29;20035;-89
2024/02/14 12:40:49;;;;;;;17.58;9.48;;;11.20;99.90;;;;;;4935773;29;20047;-90
2024/02/14 12:43:16;;;;;;;15.88;8.38;;;11.20;99.90;;;;;;4937988;29;20040;-90
2024/02/14 12:45:43;;;;;;;15.50;8.82;;;11.30;99.90;;;;;;4937182;29;20043;-90
2024/02/14 12:48:15;;;;;;;14.48;8.45;;;11.30;99.90;;;;;;4937884;29;20520;-90
2024/02/14 12:50:48;;;;;;;16.73;9.48;;;11.30;99.90;;;;;;4937447;29;20047;-90